Angelo Coast Range Reserve, California Weather observations

Data are for 10 minute period ending at time listed.
 Day   Time   Solar   Ave.   Ave.  Ave.  Vector  Max.   Baro.   Total    
  of    of     Rad.   Air    Rel.  Wind   Wind   Wind  Press.  Precip.   
Year   Day            Temp.  Hum.  Speed  Dir.   Gust                    
2017   (PST)  Kw/m2    F      %     mph   deg.    mph    mb.     in.     
-------------------------------------------------------------------------
  18    0:30   0.00   42.4   100    0.4   352     3.4   965.9    0.01 
  18    0:40   0.00   42.2   100    1.3   340     3.4   965.4    0.01 
  18    0:50   0.00   42.2   100    3.0   336     7.3   964.6    0.01 
  18    1:00   0.00   42.3   100    3.4    20     5.6   964.6    0.01 
  18    1:10   0.00   42.4   100    3.6    31     6.9   964.8    0.01 
  18    1:20   0.00   42.5   100    2.7    13     5.8   964.8    0.00 
  18    1:30   0.00   42.5   100    3.7    24     6.3   964.7    0.00 
  18    1:40   0.00   42.5   100    3.0    37     5.0   964.9    0.00 
  18    1:50   0.00   42.6   100    3.4    35     5.5   964.8    0.00 
  18    2:00   0.00   42.6   100    3.4    31     5.5   965.0    0.00 
  18    2:10   0.00   42.6   100    2.5    27     4.7   965.1    0.00 
  18    2:20   0.00   42.7   100    2.3    17     6.6   964.8    0.00 
  18    2:30   0.00   42.6   100    3.9    25     6.6   964.5    0.00 
  18    2:40   0.00   42.6   100    3.8    13     5.8   964.3    0.00 
  18    2:50   0.00   42.5   100    3.5     7     5.3   964.2    0.00 
  18    3:00   0.00   42.5   100    3.0    32     6.7   964.5    0.00 
  18    3:10   0.00   42.6   100    2.7    12     6.7   964.3    0.00 
  18    3:20   0.00   42.5   100    3.0    21     6.0   964.0    0.00 
  18    3:30   0.00   42.5   100    3.1    20     6.3   963.6    0.00 
  18    3:40   0.00   42.5   100    2.8   357     6.4   963.7    0.00 
  18    3:50   0.00   42.6   100    3.8    14     7.2   963.7    0.00 
  18    4:00   0.00   42.7   100    4.0    21     7.3   963.6    0.00 
  18    4:10   0.00   42.8   100    4.0    22     7.2   963.5    0.00 
  18    4:20   0.00   42.9   100    3.0    26     6.0   963.5    0.00 
  18    4:30   0.00   43.0   100    3.8    24     6.9   963.6    0.01 
  18    4:40   0.00   43.1   100    2.3    31     6.7   963.8    0.02 
  18    4:50   0.00   44.1    98    4.0   270    11.8   963.7    0.02 
  18    5:00   0.00   44.2    96    2.8   348     6.0   963.2    0.01 
  18    5:10   0.00   43.8    98    3.5     8     7.4   963.1    0.01 
  18    5:20   0.00   43.6    99    3.7    14    11.8   962.8    0.01 
  18    5:30   0.00   43.2    98    3.9    18     6.1   962.6    0.00 
  18    5:40   0.00   42.9    99    3.0    21     6.1   962.3    0.00 
  18    5:50   0.00   43.0    99    3.8   359     8.2   962.1    0.00 
  18    6:00   0.00   43.1   100    3.0     3     6.7   961.8    0.01 
  18    6:10   0.00   43.5   100    3.0   353     6.6   961.3    0.00 
  18    6:20   0.00   43.9   100    3.3   323     9.3   961.0    0.00 
  18    6:30   0.00   44.7    99    3.4    63     9.3   960.6    0.01 
  18    6:40   0.00   45.4    97    3.1   333     7.6   960.3    0.00 
  18    6:50   0.00   46.4    93    3.0   141    15.5   959.7    0.00 
  18    7:00   0.00   47.3    89    3.9   151    15.9   959.5    0.00 
  18    7:10   0.00   47.4    88    3.4   182    10.1   959.8    0.00 
  18    7:20   0.00   47.7    84    4.3   211    15.7   959.5    0.00 
  18    7:30   0.00   47.4    86    3.8   236     9.9   958.8    0.02 
  18    7:40   0.00   46.5    92    2.6     2     6.5   958.3    0.01 
  18    7:50   0.00   46.8    88    2.5   175    10.1   959.0    0.01 
  18    8:00   0.00   46.8    86    4.8   172     9.9   958.8    0.00 
  18    8:10   0.00   46.9    86    5.6   161    16.4   958.3    0.02 
  18    8:20   0.01   47.3    85    3.5   150    13.1   958.2    0.04 
  18    8:30   0.00   46.9    87    4.6   175    17.3   958.6    0.03 
  18    8:40   0.00   46.8    88    4.8   206    12.1   958.7    0.03 
  18    8:50   0.00   46.1    91    3.9   208    13.1   958.8    0.03 
  18    9:00   0.00   45.9    93    3.7   151    12.3   958.8    0.04 
  18    9:10   0.02   46.0    92    3.9   156    16.2   958.1    0.05 
  18    9:20   0.02   46.6    87    4.9   195    15.4   958.2    0.02 
  18    9:30   0.01   45.8    90    3.2   178    11.0   958.4    0.03 
  18    9:40   0.03   45.4    88    4.0   175    16.1   958.5    0.03 
  18    9:50   0.03   45.0    90    4.7   182    14.5   958.2    0.03 
  18   10:00   0.02   44.8    91    5.1   208    14.8   958.3    0.03 
  18   10:10   0.01   45.1    90    5.6   189    14.5   958.7    0.06 
  18   10:20   0.01   45.1    91    4.1   197    12.1   958.2    0.06 
  18   10:30   0.01   45.7    90    4.5   194    13.6   957.8    0.04 
  18   10:40   0.01   46.0    91    4.5   207    11.2   957.3    0.02 
  18   10:50   0.02   46.6    91    4.7   191    13.2   957.1    0.03 
  18   11:00   0.02   47.0    91    6.6   192    21.3   956.8    0.03 
  18   11:10   0.03   47.4    90    4.1   152     9.8   956.7    0.03 
  18   11:20   0.03   47.7    89    6.0   193    17.2   956.4    0.03 
  18   11:30   0.02   48.3    87    6.4   182    18.3   956.1    0.01 
  18   11:40   0.03   48.2    89    6.6   172    18.0   956.0    0.04 
  18   11:50   0.03   48.4    89    7.0   182    17.8   955.6    0.04 
  18   12:00   0.03   48.7    88    7.1   179    20.2   955.3    0.04 
  18   12:10   0.03   48.6    89    8.6   184    20.8   955.3    0.06 
  18   12:20   0.02   48.5    89    7.0   175    22.9   955.2    0.05 
  18   12:30   0.02   47.9    92    4.8   175    14.8   955.0    0.05 
  18   12:40   0.04   47.9    91    5.2   160    20.4   954.9    0.03 
  18   12:50   0.03   48.2    90    5.6   156    15.5   954.5    0.03 
  18   13:00   0.03   48.2    91    4.9   174    16.4   954.1    0.06 
  18   13:10   0.05   48.7    89    4.8   162    18.6   953.6    0.03 
  18   13:20   0.03   48.9    89    6.8   180    21.0   953.2    0.03 
  18   13:30   0.02   49.3    88    7.3   161    19.0   952.9    0.04 
  18   13:40   0.02   49.4    89    8.6   182    27.6   952.4    0.03 
  18   13:50   0.01   50.1    87    9.7   167    26.2   952.2    0.02 
  18   14:00   0.01   49.6    90    7.6   159    19.4   952.3    0.08 
  18   14:10   0.01   49.6    90    8.8   162    22.1   952.4    0.07 
  18   14:20   0.01   49.4    92    6.5   159    18.0   952.3    0.06 
  18   14:30   0.02   49.2    93    7.0   148    17.5   952.3    0.06 
  18   14:40   0.01   49.4    92    7.0   161    20.2   952.4    0.08 
  18   14:50   0.01   49.4    92    7.8   166    19.1   952.4    0.05 
  18   15:00   0.02   49.9    92    7.0   161    16.7   952.3    0.03 
  18   15:10   0.03   50.3    91    8.7   161    19.2   952.7    0.08 
  18   15:20   0.02   49.8    93    7.2   152    16.4   953.4    0.08 
  18   15:30   0.02   48.9    96    4.7   117    12.9   954.1    0.12 
  18   15:40   0.03   48.7    97    4.9   124    12.1   954.0    0.03 
  18   15:50   0.03   48.6    97    3.7   121     8.8   954.0    0.02 
  18   16:00   0.03   48.3    97    4.2   142    13.6   953.8    0.01 
  18   16:10   0.03   48.1    98    2.3   133     4.7   953.7    0.02 
  18   16:20   0.01   47.8    98    2.0   131     4.7   953.3    0.02 
  18   16:30   0.01   47.7    99    1.9   122     5.6   953.0    0.00 
  18   16:40   0.01   47.6    99    1.1   101     3.3   952.7    0.01 
  18   16:50   0.00   47.5    99    1.3    30     3.2   952.6    0.00 
  18   17:00   0.00   47.4    99    0.9   321     2.2   952.7    0.01 
  18   17:10   0.00   47.3    99    0.8   156     2.3   952.9    0.01 
  18   17:20   0.00   47.2    99    1.2   146     2.5   953.1    0.00 
  18   17:30   0.00   47.2    99    0.9   168     2.8   953.0    0.01 
  18   17:40   0.00   47.2    99    0.8   100     2.1   953.0    0.02 
  18   17:50   0.00   47.1    99    2.5   116     8.9   952.8    0.01 
  18   18:00   0.00   47.2    99    5.7   125    12.6   953.1    0.01 
  18   18:10   0.00   47.0    98    4.2   140    10.1   953.3    0.03 
  18   18:20   0.00   46.8    96    5.8   145    12.3   953.3    0.04 
  18   18:30   0.00   46.3    96    3.9   134    10.9   953.3    0.02 
  18   18:40   0.00   46.0    96    2.9   143     9.3   953.5    0.06 
  18   18:50   0.00   45.6    98    0.9    72     3.5   953.6    0.07 
  18   19:00   0.00   45.2    98    1.7   144     4.1   953.6    0.02 
  18   19:10   0.00   44.9    98    2.8   153     6.3   953.7    0.01 
  18   19:20   0.00   44.8    98    1.1    94     3.4   953.7    0.02 
  18   19:30   0.00   44.6    98    0.8   100     2.9   953.7    0.02 
  18   19:40   0.00   44.5    99    0.6   110     2.3   953.7    0.00 
  18   19:50   0.00   44.5    99    1.3   137     3.1   953.7    0.02 
  18   20:00   0.00   44.4    99    0.9   126     2.2   953.7    0.00 
  18   20:10   0.00   44.4    99    0.6    60     1.5   953.6    0.01 
  18   20:20   0.00   44.2    99    0.1    23     0.9   953.5    0.02 
  18   20:30   0.00   44.0    99    0.4    81     1.5   953.7    0.03 
  18   20:40   0.00   44.0    99    0.0     0     0.0   953.8    0.03 
  18   20:50   0.00   44.0    99    0.4    40     1.4   953.8    0.05 
  18   21:00   0.00   44.1    99    1.1    67     2.8   954.3    0.05 
  18   21:10   0.00   43.9    99    4.0    52    16.6   954.8    0.06 
  18   21:20   0.00   43.2    96    2.9    97     9.2   955.2    0.07 
  18   21:30   0.00   42.0    97    2.5   112     6.9   955.2    0.05 
  18   21:40   0.00   41.6    98    1.0   160     2.1   954.9    0.02 
  18   21:50   0.00   41.5    99    0.3   190     1.5   954.9    0.01 
  18   22:00   0.00   41.5    99    0.2   109     1.2   955.1    0.00 
  18   22:10   0.00   41.4    99    0.9   176     2.5   955.2    0.00 
  18   22:20   0.00   41.3    99    0.2   166     1.0   955.5    0.01 
  18   22:30   0.00   41.4    99    1.1   128     2.6   955.7    0.01 
  18   22:40   0.00   41.4    99    0.4   292     1.5   955.6    0.00 
  18   22:50   0.00   41.4    99    0.7   133     1.8   955.8    0.00 
  18   23:00   0.00   41.4    99    0.8   163     3.4   955.9    0.04 
  18   23:10   0.00   41.3    99    0.4    77     2.4   956.0    0.00 
  18   23:20   0.00   41.3    99    0.5     6     1.9   956.0    0.00 
  18   23:30   0.00   41.3    99    0.2    42     1.1   956.0    0.01 
  18   23:40   0.00   41.3    99    0.7    81     2.7   956.2    0.01 
  18   23:50   0.00   41.2    99    1.9    36     4.6   956.4    0.02 
  19    0:00   0.00   41.2    99    1.0    87     2.4   956.6    0.02 
  19    0:10   0.00   41.2    99    0.5    56     2.0   956.6    0.00 
  19    0:20   0.00   41.2    99    0.5   338     1.2   956.6    0.01 

Return to Angelo Coast Range Reserve graphs page.


Western Regional Climate Center,wrcc@dri.edu